Stockton, Wisconsin
Current Conditions -  °F | °C
As of 10:35 PM on Saturday 22 Nov 2014 (Local Time) from KSTE Reporting Station
Haze Haze  
Wind Chill: 37°   Ceiling: 500
Heat Index: 37°   Visibility: 2mi
Dew Point: 37°   Wind: 3mph
Humidity: 100%   Direction: 140°SE
Pressure: 29.7"   Gusts: NA
Location:  44.5531°N, 89.5186°W
Report Text: KSTE 230435Z AUTO 14003KT 2SM BR OVC005 03/03 A2970 RMK AO2 T00250025
Loading
Personal Weather Stations






























Interactive Weather Map New forecast layout! Learn more

10-Day Weather Forecast

Advertisements
Track Severe Weather on mobile